createdAt,value
2018-01-20T08:04:53.871Z,7.70
2018-01-20T13:26:52.222Z,3.03
2018-01-20T13:29:24.154Z,3.87
2018-01-20T13:49:58.376Z,4.00
2018-01-20T13:52:39.299Z,6.93
2018-01-20T14:03:46.285Z,3.03
2018-01-20T14:06:13.767Z,5.00
2018-01-20T14:12:35.196Z,3.23
2018-01-20T14:21:01.318Z,4.07
2018-01-20T14:23:28.754Z,2.37
2018-01-20T14:25:56.199Z,3.73
2018-01-20T14:28:24.407Z,3.30
2018-01-20T14:30:51.846Z,5.20
2018-01-20T14:33:19.297Z,3.10
2018-01-20T14:35:47.493Z,4.57
2018-01-20T14:38:15.760Z,5.33
2018-01-20T14:40:43.198Z,3.50
2018-01-20T14:43:11.395Z,7.47
2018-01-20T14:45:38.838Z,4.97
2018-01-20T14:48:06.275Z,3.90
2018-01-20T14:50:34.485Z,7.87
2018-01-20T14:53:01.926Z,4.60
2018-01-20T14:55:29.370Z,4.80
2018-01-20T14:57:57.568Z,5.07
2018-01-20T15:00:25.010Z,6.40
2018-01-20T15:02:52.442Z,3.50
2018-01-20T15:05:20.683Z,4.07
2018-01-20T15:07:48.166Z,4.93
2018-01-20T15:10:15.595Z,33.57
2018-01-20T15:12:43.039Z,17.77
2018-01-20T15:15:10.491Z,29.27
2018-01-20T15:17:37.942Z,36.47
2018-01-20T15:20:05.386Z,32.63
2018-01-20T15:22:32.832Z,15.53
2018-01-20T15:25:00.271Z,6.97
2018-01-20T15:27:28.475Z,5.70
2018-01-20T15:29:55.910Z,6.93
2018-01-20T15:32:24.114Z,5.33
2018-01-20T15:34:51.550Z,5.17
2018-01-20T15:37:18.986Z,4.30
2018-01-20T15:39:47.188Z,3.70
2018-01-20T15:42:14.625Z,4.20
2018-01-20T15:44:42.828Z,6.53
2018-01-20T15:47:10.270Z,8.03
2018-01-20T15:49:37.702Z,5.07
2018-01-20T15:52:05.916Z,5.10
2018-01-20T15:54:33.342Z,4.83
2018-01-20T15:57:01.553Z,5.23
2018-01-20T15:59:28.986Z,5.20
2018-01-20T16:01:56.457Z,7.97
2018-01-20T16:04:23.877Z,4.80
2018-01-20T16:06:52.087Z,7.80
2018-01-20T16:09:19.523Z,9.70
2018-01-20T16:11:46.970Z,8.53
2018-01-20T16:14:15.179Z,12.90
2018-01-20T16:16:42.614Z,8.80
2018-01-20T16:19:10.088Z,5.60
2018-01-20T16:21:37.521Z,5.70
2018-01-20T16:24:05.718Z,8.03
2018-01-20T16:26:33.161Z,20.90
2018-01-20T16:29:00.602Z,14.00
2018-01-20T16:31:28.817Z,11.97
2018-01-20T16:33:56.261Z,9.20
2018-01-20T16:36:23.694Z,4.90
2018-01-20T16:38:51.898Z,4.40
2018-01-20T16:41:19.386Z,4.57
2018-01-20T16:43:46.826Z,6.33
2018-01-20T16:46:14.364Z,5.83
2018-01-20T16:48:41.850Z,4.67
2018-01-20T16:51:09.317Z,5.73
2018-01-20T16:53:36.722Z,5.80
2018-01-20T18:12:01.231Z,7.20
2018-01-20T18:14:28.796Z,11.83
2018-01-20T18:16:56.221Z,6.60
2018-01-20T18:19:23.729Z,7.03
2018-01-20T18:21:51.262Z,7.40
2018-01-20T18:24:21.799Z,9.43
2018-01-20T18:26:49.227Z,8.13
2018-01-20T18:29:16.725Z,4.43
2018-01-20T18:31:44.198Z,6.33
2018-01-20T18:34:11.701Z,7.37
2018-01-20T18:36:39.124Z,7.00
2018-01-20T18:39:07.378Z,5.10
2018-01-20T18:41:34.795Z,5.70
2018-01-20T18:44:02.235Z,5.63
2018-01-20T18:46:29.668Z,6.70
2018-01-20T18:48:57.908Z,6.10
2018-01-20T18:51:25.375Z,5.83
2018-01-20T18:53:52.794Z,6.80
2018-01-20T18:56:25.068Z,6.03
2018-01-20T18:58:52.506Z,6.23
2018-01-20T19:04:14.192Z,6.50
2018-01-20T19:06:41.624Z,13.17
2018-01-20T19:09:09.051Z,8.93
2018-01-20T19:11:36.500Z,7.53
2018-01-20T19:14:03.938Z,9.63
2018-01-20T19:16:32.189Z,8.90
2018-01-20T19:18:59.618Z,8.27
2018-01-20T19:21:27.117Z,11.77
2018-01-20T19:23:54.546Z,12.77
2018-01-20T19:26:21.987Z,9.67
2018-01-20T19:28:49.428Z,9.53
2018-01-20T19:31:16.917Z,6.50
2018-01-20T19:36:35.900Z,6.13
2018-01-20T19:39:03.336Z,6.27
2018-01-20T19:41:30.783Z,7.20
2018-01-20T19:43:58.279Z,8.27
2018-01-20T19:49:17.619Z,7.00
2018-01-20T19:51:45.051Z,7.37
2018-01-20T19:54:13.249Z,7.60
2018-01-20T19:56:40.737Z,7.90
2018-01-20T19:59:08.209Z,6.57
2018-01-20T20:01:35.626Z,6.60
2018-01-20T20:04:03.058Z,7.80
2018-01-20T20:06:30.570Z,8.23
2018-01-20T20:08:57.981Z,7.43
2018-01-20T20:11:25.420Z,8.77
2018-01-20T20:13:53.661Z,8.77
2018-01-20T20:19:13.379Z,7.17
2018-01-20T20:21:40.918Z,7.50
2018-01-20T20:24:08.401Z,7.60
2018-01-20T20:29:39.999Z,8.13
2018-01-20T20:32:07.492Z,10.03
2018-01-20T20:34:34.915Z,8.90
2018-01-20T20:37:02.362Z,8.80
2018-01-20T20:39:29.845Z,8.87
2018-01-20T20:41:57.270Z,10.17
2018-01-20T20:44:24.707Z,9.50
2018-01-20T20:46:52.966Z,8.83
2018-01-20T20:49:20.460Z,7.90
2018-01-20T20:51:48.706Z,8.50
2018-01-20T20:54:16.225Z,8.37
2018-01-20T20:56:43.660Z,8.20
2018-01-20T20:59:11.090Z,7.07
2018-01-20T21:01:39.420Z,7.80
2018-01-20T21:06:57.663Z,11.17
2018-01-20T21:09:25.113Z,10.50
2018-01-20T21:11:52.599Z,9.97
2018-01-20T21:14:20.064Z,6.33
2018-01-20T21:22:30.887Z,9.37
2018-01-20T21:24:58.385Z,8.33
2018-01-20T21:27:26.572Z,9.60
2018-01-20T21:29:54.046Z,7.60
2018-01-20T21:32:21.475Z,8.93
2018-01-20T21:34:48.958Z,8.40
2018-01-20T21:37:16.434Z,7.80
2018-01-20T21:39:43.935Z,7.17
2018-01-20T21:42:12.170Z,10.00
2018-01-20T21:44:39.598Z,11.27
2018-01-20T21:47:07.110Z,11.90
2018-01-20T21:49:34.530Z,11.37
2018-01-20T21:52:02.029Z,6.73
2018-01-20T21:57:18.973Z,4.00
2018-01-20T21:59:47.162Z,4.37
2018-01-20T22:02:14.601Z,4.70
2018-01-20T22:04:42.091Z,4.40
2018-01-20T22:07:09.521Z,4.87
2018-01-20T22:09:37.014Z,6.90
2018-01-20T22:12:04.483Z,6.13
2018-01-20T22:17:40.942Z,5.20
2018-01-20T22:20:08.434Z,4.90
2018-01-20T22:22:35.900Z,5.43
2018-01-20T22:25:03.368Z,5.17
2018-01-20T22:27:30.840Z,4.83
2018-01-20T22:29:59.039Z,5.10
2018-01-20T22:32:26.462Z,7.90
2018-01-20T22:34:53.953Z,24.67
2018-01-20T22:37:21.374Z,7.17
2018-01-20T22:39:49.586Z,7.40
2018-01-20T22:42:17.014Z,5.50
2018-01-20T22:44:44.455Z,3.83
2018-01-20T22:47:12.650Z,2.73
2018-01-20T22:49:40.082Z,3.23
2018-01-20T22:52:08.281Z,3.27
2018-01-20T22:54:35.765Z,2.90
2018-01-20T22:57:04.237Z,2.80
2018-01-20T22:59:31.794Z,2.63
2018-01-20T23:01:59.249Z,3.03
2018-01-20T23:04:26.676Z,2.90
2018-01-20T23:06:54.917Z,3.07
2018-01-20T23:09:22.337Z,2.53
2018-01-20T23:11:49.786Z,2.50
2018-01-20T23:14:17.227Z,1.90
2018-01-20T23:16:44.658Z,1.80
2018-01-20T23:19:12.863Z,2.50
2018-01-20T23:21:40.295Z,2.63
2018-01-20T23:24:08.494Z,2.20
2018-01-20T23:26:35.930Z,2.63
2018-01-20T23:29:04.131Z,2.67
2018-01-20T23:31:31.576Z,2.20
2018-01-20T23:33:59.085Z,2.70
2018-01-20T23:36:26.563Z,2.60
2018-01-20T23:38:53.986Z,2.50
2018-01-20T23:41:21.464Z,2.60
2018-01-20T23:43:48.882Z,2.80
2018-01-20T23:46:16.364Z,3.33
2018-01-20T23:48:43.786Z,2.87
2018-01-20T23:51:11.231Z,2.60
2018-01-20T23:53:38.708Z,2.90
2018-01-20T23:56:06.175Z,3.30
2018-01-20T23:58:33.641Z,3.13
